St. John's International Airport

CYYT | YYT

St. John's , Newfoundland-and-Labrador , Canada

Sunday, January 19th, 2020 | 14:39

Weather

CYYT 191700Z 27006KT 15SM FEW020 BKN220 M10/M16 A3010 RMK SC1CI6 SC TR WND EST VIA CYHZ SLP205

Charts

No Charts Available

Gates

18 Available

Runways

3 Available

Events

No events for this airport


New event